Terminal Aerodrome Forecast
Issued by NWS

Home | Current Version | Previous Version | Text Only | Print | Product List | Glossary On
Versions: 1 2 3 4 5 6 7 8 9 10 11 12 13 14 15 16 17 18 19 20 21 22 23
000
FTUS46 KSGX 161700
TAFCRQ
TAF
KCRQ 161720Z 1618/1718 19005KT P6SM SCT018
     FM161900 22008KT P6SM FEW010
     FM170100 20006KT P6SM OVC010
     FM171700 19006KT P6SM SCT018=

USA.gov is the U.S. government's official web portal to all federal, state and local government web resources and services.